createdAt,value
2024-03-08T00:01:50.694Z,4.60
2024-03-08T00:06:52.673Z,4.50
2024-03-08T00:11:55.862Z,4.30
2024-03-08T00:16:57.648Z,4.20
2024-03-08T00:21:59.431Z,4.20
2024-03-08T00:27:02.617Z,4.00
2024-03-08T00:32:04.685Z,3.90
2024-03-08T00:37:06.571Z,3.90
2024-03-08T00:42:09.758Z,3.70
2024-03-08T00:47:11.820Z,3.70
2024-03-08T00:52:13.641Z,3.70
2024-03-08T00:57:17.013Z,3.60
2024-03-08T01:02:18.971Z,3.70
2024-03-08T01:07:20.704Z,3.60
2024-03-08T01:12:23.806Z,3.60
2024-03-08T01:17:25.613Z,3.50
2024-03-08T01:22:27.363Z,3.50
2024-03-08T01:27:30.545Z,3.50
2024-03-08T01:32:32.482Z,3.40
2024-03-08T01:37:34.265Z,3.30
2024-03-08T01:42:37.434Z,3.10
2024-03-08T01:47:39.866Z,3.10
2024-03-08T01:52:41.828Z,3.00
2024-03-08T01:57:45.187Z,2.90
2024-03-08T02:02:47.750Z,2.80
2024-03-08T02:07:49.723Z,2.70
2024-03-08T02:12:52.936Z,2.60
2024-03-08T02:17:54.769Z,2.50
2024-03-08T02:22:58.164Z,2.10
2024-03-08T02:27:59.933Z,2.10
2024-03-08T02:33:01.913Z,1.90
2024-03-08T02:38:05.296Z,1.80
2024-03-08T02:43:07.025Z,1.60
2024-03-08T02:48:09.816Z,1.30
2024-03-08T02:53:13.875Z,1.20
2024-03-08T02:58:16.107Z,0.80
2024-03-08T03:03:18.099Z,0.90
2024-03-08T03:08:21.327Z,1.10
2024-03-08T03:13:23.083Z,1.50
2024-03-08T03:18:25.006Z,1.80
2024-03-08T03:23:28.379Z,1.80
2024-03-08T03:28:30.233Z,1.80
2024-03-08T03:33:32.048Z,1.90
2024-03-08T03:38:35.245Z,2.10
2024-03-08T03:43:37.091Z,2.20
2024-03-08T03:48:38.953Z,2.20
2024-03-08T03:53:42.310Z,2.10
2024-03-08T03:58:44.124Z,2.10
2024-03-08T04:03:45.891Z,2.00
2024-03-08T04:08:49.132Z,2.00
2024-03-08T04:13:50.995Z,1.90
2024-03-08T04:18:52.880Z,1.60
2024-03-08T04:23:55.982Z,1.50
2024-03-08T04:28:57.757Z,1.40
2024-03-08T04:33:59.570Z,1.30
2024-03-08T04:39:02.729Z,1.20
2024-03-08T04:44:04.725Z,1.10
2024-03-08T04:49:06.533Z,1.00
2024-03-08T04:54:09.743Z,1.00
2024-03-08T04:59:11.559Z,1.00
2024-03-08T05:04:13.508Z,1.00
2024-03-08T05:09:16.871Z,1.00
2024-03-08T05:14:18.700Z,0.90
2024-03-08T05:19:21.384Z,0.80
2024-03-08T05:24:24.592Z,0.70
2024-03-08T05:29:26.368Z,0.70
2024-03-08T05:34:28.159Z,0.60
2024-03-08T05:39:31.399Z,0.30
2024-03-08T05:44:33.226Z,0.00
2024-03-08T05:49:35.086Z,-0.30
2024-03-08T05:54:38.298Z,-0.60
2024-03-08T05:59:40.151Z,-0.80
2024-03-08T06:04:41.925Z,-1.00
2024-03-08T06:09:45.043Z,-1.00
2024-03-08T06:14:46.785Z,-0.90
2024-03-08T06:19:48.576Z,-0.90
2024-03-08T06:24:51.749Z,-0.80
2024-03-08T06:29:53.551Z,-0.80
2024-03-08T06:34:55.380Z,-0.80
2024-03-08T06:39:58.574Z,-0.70
2024-03-08T06:45:00.618Z,-0.60
2024-03-08T06:50:02.809Z,-0.50
2024-03-08T06:55:07.063Z,-0.30
2024-03-08T07:00:10.240Z,-0.20
2024-03-08T07:05:12.877Z,-0.10
2024-03-08T07:10:16.103Z,0.10
2024-03-08T07:15:18.053Z,0.40
2024-03-08T07:20:20.133Z,0.70
2024-03-08T07:25:23.953Z,0.90
2024-03-08T07:30:29.998Z,1.20
2024-03-08T07:35:32.524Z,1.40
2024-03-08T07:40:38.332Z,1.70
2024-03-08T07:45:40.379Z,1.90
2024-03-08T07:50:42.357Z,2.10
2024-03-08T07:55:45.510Z,2.30
2024-03-08T08:00:47.379Z,2.40
2024-03-08T08:05:49.159Z,2.60
2024-03-08T08:10:52.287Z,2.80
2024-03-08T08:15:54.180Z,3.10
2024-03-08T08:20:55.967Z,3.20
2024-03-08T08:25:59.287Z,3.40
2024-03-08T08:31:01.197Z,3.60
2024-03-08T08:36:03.147Z,3.70
2024-03-08T08:41:06.903Z,3.90
2024-03-08T08:46:08.661Z,4.10
2024-03-08T08:51:11.136Z,4.60
2024-03-08T08:56:14.318Z,4.90
2024-03-08T09:01:16.447Z,5.20
2024-03-08T09:06:18.361Z,5.40
2024-03-08T09:11:21.679Z,5.80
2024-03-08T09:16:23.523Z,6.00
2024-03-08T09:21:25.303Z,6.20
2024-03-08T09:26:29.857Z,6.50
2024-03-08T09:31:31.847Z,6.50
2024-03-08T09:36:33.728Z,6.90
2024-03-08T09:41:37.209Z,7.00
2024-03-08T09:46:39.545Z,7.30
2024-03-08T09:51:41.621Z,7.40
2024-03-08T09:56:45.908Z,7.30
2024-03-08T10:01:47.833Z,7.70
2024-03-08T10:06:49.755Z,7.70
2024-03-08T10:11:56.169Z,7.90
2024-03-08T10:16:59.009Z,8.20
2024-03-08T10:22:01.144Z,8.10
2024-03-08T10:27:04.767Z,8.30
2024-03-08T10:32:08.301Z,8.20
2024-03-08T10:37:22.223Z,8.20
2024-03-08T10:42:29.789Z,8.40
2024-03-08T10:47:35.057Z,8.60
2024-03-08T10:52:37.011Z,8.70
2024-03-08T10:57:41.648Z,8.70
2024-03-08T11:02:45.187Z,8.70
2024-03-08T11:07:47.083Z,8.80
2024-03-08T11:12:50.311Z,8.70
2024-03-08T11:17:52.397Z,9.10
2024-03-08T11:22:55.742Z,9.20
2024-03-08T11:28:10.881Z,9.50
2024-03-08T11:33:14.127Z,9.50
2024-03-08T11:38:15.914Z,9.10
2024-03-08T11:43:19.165Z,9.80
2024-03-08T11:48:21.083Z,10.10
2024-03-08T11:53:22.904Z,10.10
2024-03-08T11:58:26.011Z,10.40
2024-03-08T12:03:27.755Z,10.80
2024-03-08T12:08:29.536Z,10.40
2024-03-08T12:13:33.897Z,10.40
2024-03-08T12:18:38.258Z,10.70
2024-03-08T12:23:41.905Z,10.40
2024-03-08T12:28:49.029Z,10.20
2024-03-08T12:33:54.501Z,10.10
2024-03-08T12:38:59.894Z,9.90
2024-03-08T12:44:03.536Z,10.50
2024-03-08T12:49:05.384Z,10.90
2024-03-08T12:54:08.244Z,10.40
2024-03-08T12:59:12.029Z,10.50
2024-03-08T13:04:13.954Z,10.80
2024-03-08T13:09:15.712Z,11.20
2024-03-08T13:14:18.853Z,11.10
2024-03-08T13:19:20.773Z,11.10
2024-03-08T13:24:22.587Z,10.90
2024-03-08T13:29:25.787Z,10.60
2024-03-08T13:34:27.530Z,10.60
2024-03-08T13:39:29.342Z,10.60
2024-03-08T13:44:32.510Z,10.30
2024-03-08T13:49:34.347Z,10.60
2024-03-08T13:54:36.213Z,10.80
2024-03-08T13:59:39.376Z,10.90
2024-03-08T14:04:41.233Z,11.20
2024-03-08T14:09:43.169Z,10.90
2024-03-08T14:14:46.487Z,11.00
2024-03-08T14:19:48.312Z,10.60
2024-03-08T14:24:50.067Z,10.80
2024-03-08T14:29:53.196Z,10.70
2024-03-08T14:34:57.095Z,10.80
2024-03-08T14:39:59.028Z,10.70
2024-03-08T14:45:02.215Z,10.80
2024-03-08T14:50:04.408Z,10.80
2024-03-08T14:55:06.838Z,10.70
2024-03-08T15:00:10.985Z,10.60
2024-03-08T15:05:14.739Z,10.50
2024-03-08T15:10:16.641Z,10.60
2024-03-08T15:15:19.885Z,10.50
2024-03-08T15:20:21.793Z,10.50
2024-03-08T15:25:23.589Z,10.40
2024-03-08T15:30:26.797Z,10.40
2024-03-08T15:35:28.566Z,10.40
2024-03-08T15:40:30.365Z,10.40
2024-03-08T15:45:33.497Z,10.50
2024-03-08T15:50:35.301Z,10.40
2024-03-08T15:55:37.175Z,10.50
2024-03-08T16:00:40.277Z,10.40
2024-03-08T16:05:42.615Z,10.50
2024-03-08T16:10:45.650Z,10.50
2024-03-08T16:15:52.204Z,10.40
2024-03-08T16:20:55.356Z,10.40
2024-03-08T16:25:57.603Z,10.30
2024-03-08T16:31:00.831Z,10.40
2024-03-08T16:36:02.909Z,10.20
2024-03-08T16:41:05.012Z,10.30
2024-03-08T16:46:08.332Z,10.20
2024-03-08T16:51:10.355Z,10.20
2024-03-08T16:56:12.192Z,10.00
2024-03-08T17:01:15.396Z,9.80
2024-03-08T17:06:17.519Z,9.60
2024-03-08T17:11:21.953Z,9.20
2024-03-08T17:16:26.463Z,9.20
2024-03-08T17:21:28.588Z,9.00
2024-03-08T17:26:30.374Z,8.80
2024-03-08T17:31:33.726Z,8.60
2024-03-08T17:36:35.646Z,8.00
2024-03-08T17:41:37.536Z,7.40
2024-03-08T17:46:40.790Z,6.80
2024-03-08T17:51:42.645Z,6.60
2024-03-08T17:56:44.872Z,6.50
2024-03-08T18:01:48.130Z,6.20
2024-03-08T18:06:52.931Z,6.00
2024-03-08T18:11:55.593Z,5.90
2024-03-08T18:16:58.837Z,5.80
2024-03-08T18:22:00.703Z,5.90
2024-03-08T18:27:02.486Z,5.90
2024-03-08T18:32:06.555Z,5.90
2024-03-08T18:37:08.328Z,5.60
2024-03-08T18:42:10.171Z,5.40
2024-03-08T18:47:13.381Z,5.60
2024-03-08T18:52:15.218Z,5.60
2024-03-08T18:57:17.090Z,5.50
2024-03-08T19:02:20.328Z,5.40
2024-03-08T19:07:22.139Z,5.40
2024-03-08T19:12:24.329Z,5.40
2024-03-08T19:17:27.501Z,5.10
2024-03-08T19:22:29.355Z,4.90
2024-03-08T19:27:31.077Z,4.90
2024-03-08T19:32:34.256Z,4.80
2024-03-08T19:37:36.807Z,4.80
2024-03-08T19:42:38.676Z,4.70
2024-03-08T19:47:41.825Z,4.60
2024-03-08T19:52:45.468Z,4.60
2024-03-08T19:57:50.727Z,4.50
2024-03-08T20:02:55.826Z,4.30
2024-03-08T20:07:58.529Z,4.30
2024-03-08T20:13:00.304Z,3.90
2024-03-08T20:18:03.585Z,3.40
2024-03-08T20:23:05.614Z,3.10
2024-03-08T20:28:07.590Z,2.90
2024-03-08T20:33:11.329Z,2.60
2024-03-08T20:38:13.121Z,2.90
2024-03-08T20:43:15.313Z,3.10
2024-03-08T20:48:18.703Z,2.90
2024-03-08T20:53:20.938Z,2.60
2024-03-08T20:58:23.241Z,2.30
2024-03-08T21:03:26.754Z,2.20
2024-03-08T21:08:29.253Z,2.10
2024-03-08T21:13:31.434Z,2.00
2024-03-08T21:18:34.555Z,1.60
2024-03-08T21:23:36.409Z,1.70
2024-03-08T21:28:38.543Z,1.90
2024-03-08T21:33:41.716Z,2.00
2024-03-08T21:38:43.728Z,2.10
2024-03-08T21:43:45.544Z,1.80
2024-03-08T21:48:48.841Z,1.50
2024-03-08T21:53:50.581Z,1.40
2024-03-08T21:58:52.409Z,1.50
2024-03-08T22:03:55.673Z,1.30
2024-03-08T22:08:57.496Z,1.00
2024-03-08T22:13:59.323Z,1.20
2024-03-08T22:19:02.533Z,1.00
2024-03-08T22:24:04.805Z,0.80
2024-03-08T22:29:06.620Z,0.60
2024-03-08T22:34:09.727Z,0.60
2024-03-08T22:39:11.526Z,0.70
2024-03-08T22:44:13.342Z,1.10
2024-03-08T22:49:16.511Z,1.60
2024-03-08T22:54:18.428Z,1.60
2024-03-08T22:59:20.190Z,1.40
2024-03-08T23:04:23.306Z,1.00
2024-03-08T23:09:25.148Z,0.70
2024-03-08T23:14:26.974Z,1.10
2024-03-08T23:19:30.171Z,1.40
2024-03-08T23:24:31.975Z,1.60
2024-03-08T23:29:33.782Z,1.70
2024-03-08T23:34:36.887Z,2.00
2024-03-08T23:39:38.718Z,2.00
2024-03-08T23:44:41.957Z,1.60
2024-03-08T23:49:45.190Z,1.60
2024-03-08T23:54:46.970Z,1.60
2024-03-08T23:59:48.689Z,1.60
